sensor_id;sensor_type;location;lat;lon;timestamp;pressure;altitude;pressure_sealevel;temperature;humidity
16544;BME280;8384;47.996;7.786;2023-04-29T00:01:24;98571.97;;;13.67;100.00
16544;BME280;8384;47.996;7.786;2023-04-29T00:03:50;98579.34;;;13.71;100.00
16544;BME280;8384;47.996;7.786;2023-04-29T00:06:15;98576.53;;;13.82;100.00
16544;BME280;8384;47.996;7.786;2023-04-29T00:08:40;98575.44;;;13.83;100.00
16544;BME280;8384;47.996;7.786;2023-04-29T00:11:06;98570.84;;;13.73;100.00
16544;BME280;8384;47.996;7.786;2023-04-29T00:13:31;98561.00;;;13.67;100.00
16544;BME280;8384;47.996;7.786;2023-04-29T00:15:56;98541.25;;;13.59;100.00
16544;BME280;8384;47.996;7.786;2023-04-29T00:18:22;98563.56;;;13.87;100.00
16544;BME280;8384;47.996;7.786;2023-04-29T00:20:47;98549.66;;;13.73;100.00
16544;BME280;8384;47.996;7.786;2023-04-29T00:23:13;98491.03;;;13.19;100.00
16544;BME280;8384;47.996;7.786;2023-04-29T00:25:38;98546.78;;;13.54;100.00
16544;BME280;8384;47.996;7.786;2023-04-29T00:28:06;98542.72;;;13.46;100.00
16544;BME280;8384;47.996;7.786;2023-04-29T00:30:31;98566.41;;;13.77;100.00
16544;BME280;8384;47.996;7.786;2023-04-29T00:32:58;98510.88;;;13.45;100.00
16544;BME280;8384;47.996;7.786;2023-04-29T00:35:23;98561.44;;;13.79;100.00
16544;BME280;8384;47.996;7.786;2023-04-29T00:37:48;98556.22;;;13.77;100.00
16544;BME280;8384;47.996;7.786;2023-04-29T00:40:14;98537.63;;;13.69;100.00
16544;BME280;8384;47.996;7.786;2023-04-29T00:42:40;98554.56;;;13.82;100.00
16544;BME280;8384;47.996;7.786;2023-04-29T00:45:07;98556.97;;;13.88;100.00
16544;BME280;8384;47.996;7.786;2023-04-29T00:47:32;98525.53;;;13.70;100.00
16544;BME280;8384;47.996;7.786;2023-04-29T00:49:58;98553.44;;;14.12;100.00
16544;BME280;8384;47.996;7.786;2023-04-29T00:52:23;98550.53;;;14.03;100.00
16544;BME280;8384;47.996;7.786;2023-04-29T00:54:50;98542.47;;;13.83;100.00
16544;BME280;8384;47.996;7.786;2023-04-29T00:57:18;98540.81;;;13.82;100.00
16544;BME280;8384;47.996;7.786;2023-04-29T00:59:43;98538.97;;;13.72;100.00
16544;BME280;8384;47.996;7.786;2023-04-29T01:02:09;98564.44;;;13.83;100.00
16544;BME280;8384;47.996;7.786;2023-04-29T01:04:35;98541.16;;;13.75;100.00
16544;BME280;8384;47.996;7.786;2023-04-29T01:07:03;98557.81;;;13.89;100.00
16544;BME280;8384;47.996;7.786;2023-04-29T01:09:40;98556.63;;;13.95;100.00
16544;BME280;8384;47.996;7.786;2023-04-29T01:12:31;98539.75;;;14.07;100.00
16544;BME280;8384;47.996;7.786;2023-04-29T01:15:25;98555.41;;;14.12;100.00
16544;BME280;8384;47.996;7.786;2023-04-29T01:18:19;98563.09;;;14.09;100.00
16544;BME280;8384;47.996;7.786;2023-04-29T01:20:45;98557.28;;;14.16;100.00
16544;BME280;8384;47.996;7.786;2023-04-29T01:23:11;98553.50;;;14.07;100.00
16544;BME280;8384;47.996;7.786;2023-04-29T01:25:36;98519.84;;;13.91;100.00
16544;BME280;8384;47.996;7.786;2023-04-29T01:28:32;98527.16;;;13.71;100.00
16544;BME280;8384;47.996;7.786;2023-04-29T01:31:18;98548.53;;;13.79;100.00
16544;BME280;8384;47.996;7.786;2023-04-29T01:36:39;98554.41;;;13.97;100.00
16544;BME280;8384;47.996;7.786;2023-04-29T01:39:15;98521.63;;;13.76;100.00
16544;BME280;8384;47.996;7.786;2023-04-29T01:41:56;98544.63;;;13.86;100.00
16544;BME280;8384;47.996;7.786;2023-04-29T01:44:23;98544.34;;;13.87;100.00
16544;BME280;8384;47.996;7.786;2023-04-29T01:46:52;98534.19;;;13.88;100.00
16544;BME280;8384;47.996;7.786;2023-04-29T01:49:24;98520.69;;;13.91;100.00
16544;BME280;8384;47.996;7.786;2023-04-29T01:51:50;98545.38;;;13.97;100.00
16544;BME280;8384;47.996;7.786;2023-04-29T01:54:16;98522.59;;;13.91;100.00
16544;BME280;8384;47.996;7.786;2023-04-29T01:56:42;98517.97;;;13.57;100.00
16544;BME280;8384;47.996;7.786;2023-04-29T01:59:07;98545.94;;;13.59;100.00
16544;BME280;8384;47.996;7.786;2023-04-29T02:01:33;98512.84;;;13.40;100.00
16544;BME280;8384;47.996;7.786;2023-04-29T02:03:58;98551.03;;;13.76;100.00
16544;BME280;8384;47.996;7.786;2023-04-29T02:06:24;98537.16;;;13.91;100.00
16544;BME280;8384;47.996;7.786;2023-04-29T02:08:49;98541.03;;;13.56;100.00
16544;BME280;8384;47.996;7.786;2023-04-29T02:11:15;98525.72;;;13.39;100.00
16544;BME280;8384;47.996;7.786;2023-04-29T02:13:40;98526.47;;;13.55;100.00
16544;BME280;8384;47.996;7.786;2023-04-29T02:16:07;98530.72;;;13.32;100.00
16544;BME280;8384;47.996;7.786;2023-04-29T02:18:32;98530.03;;;13.11;100.00
16544;BME280;8384;47.996;7.786;2023-04-29T02:21:01;98548.94;;;13.12;100.00
16544;BME280;8384;47.996;7.786;2023-04-29T02:23:26;98553.31;;;13.13;100.00
16544;BME280;8384;47.996;7.786;2023-04-29T02:25:52;98531.06;;;12.65;100.00
16544;BME280;8384;47.996;7.786;2023-04-29T02:28:17;98553.50;;;12.82;100.00
16544;BME280;8384;47.996;7.786;2023-04-29T02:30:43;98550.97;;;12.96;100.00
16544;BME280;8384;47.996;7.786;2023-04-29T02:33:08;98560.03;;;12.92;100.00
16544;BME280;8384;47.996;7.786;2023-04-29T02:35:34;98556.16;;;12.98;100.00
16544;BME280;8384;47.996;7.786;2023-04-29T02:38:00;98559.69;;;13.03;100.00
16544;BME280;8384;47.996;7.786;2023-04-29T02:40:25;98544.94;;;12.94;100.00
16544;BME280;8384;47.996;7.786;2023-04-29T02:42:51;98564.31;;;13.13;100.00
16544;BME280;8384;47.996;7.786;2023-04-29T02:45:16;98571.94;;;13.22;100.00
16544;BME280;8384;47.996;7.786;2023-04-29T02:47:41;98566.38;;;13.37;100.00
16544;BME280;8384;47.996;7.786;2023-04-29T02:50:08;98569.66;;;13.44;100.00
16544;BME280;8384;47.996;7.786;2023-04-29T02:52:33;98555.25;;;13.63;100.00
16544;BME280;8384;47.996;7.786;2023-04-29T02:54:58;98553.03;;;13.65;100.00
16544;BME280;8384;47.996;7.786;2023-04-29T02:57:24;98551.50;;;13.48;100.00
16544;BME280;8384;47.996;7.786;2023-04-29T02:59:49;98564.72;;;13.41;100.00
16544;BME280;8384;47.996;7.786;2023-04-29T03:02:15;98555.41;;;13.37;100.00
16544;BME280;8384;47.996;7.786;2023-04-29T03:04:41;98521.56;;;13.07;100.00
16544;BME280;8384;47.996;7.786;2023-04-29T03:07:06;98536.47;;;13.41;100.00
16544;BME280;8384;47.996;7.786;2023-04-29T03:09:32;98555.50;;;13.67;100.00
16544;BME280;8384;47.996;7.786;2023-04-29T03:11:57;98552.09;;;13.80;100.00
16544;BME280;8384;47.996;7.786;2023-04-29T03:14:22;98555.84;;;13.60;100.00
16544;BME280;8384;47.996;7.786;2023-04-29T03:16:48;98551.66;;;13.68;100.00
16544;BME280;8384;47.996;7.786;2023-04-29T03:19:13;98556.38;;;13.62;100.00
16544;BME280;8384;47.996;7.786;2023-04-29T03:21:38;98526.75;;;13.54;100.00
16544;BME280;8384;47.996;7.786;2023-04-29T03:24:03;98545.13;;;13.58;100.00
16544;BME280;8384;47.996;7.786;2023-04-29T03:26:29;98550.28;;;13.65;100.00
16544;BME280;8384;47.996;7.786;2023-04-29T03:28:54;98557.72;;;13.64;100.00
16544;BME280;8384;47.996;7.786;2023-04-29T03:31:20;98549.22;;;13.61;100.00
16544;BME280;8384;47.996;7.786;2023-04-29T03:33:47;98555.66;;;13.46;100.00
16544;BME280;8384;47.996;7.786;2023-04-29T03:36:12;98561.19;;;13.41;100.00
16544;BME280;8384;47.996;7.786;2023-04-29T03:38:37;98534.66;;;13.15;100.00
16544;BME280;8384;47.996;7.786;2023-04-29T03:41:03;98539.38;;;13.10;100.00
16544;BME280;8384;47.996;7.786;2023-04-29T03:43:29;98556.38;;;13.12;100.00
16544;BME280;8384;47.996;7.786;2023-04-29T03:45:54;98556.13;;;13.08;100.00
16544;BME280;8384;47.996;7.786;2023-04-29T03:48:19;98555.81;;;13.10;100.00
16544;BME280;8384;47.996;7.786;2023-04-29T03:50:45;98547.63;;;12.99;100.00
16544;BME280;8384;47.996;7.786;2023-04-29T03:53:12;98549.25;;;13.05;100.00
16544;BME280;8384;47.996;7.786;2023-04-29T03:55:38;98552.00;;;13.05;100.00
16544;BME280;8384;47.996;7.786;2023-04-29T03:58:04;98536.75;;;12.84;100.00
16544;BME280;8384;47.996;7.786;2023-04-29T04:00:30;98558.56;;;13.10;100.00
16544;BME280;8384;47.996;7.786;2023-04-29T04:02:56;98560.78;;;13.08;100.00
16544;BME280;8384;47.996;7.786;2023-04-29T04:05:22;98556.94;;;13.03;100.00
16544;BME280;8384;47.996;7.786;2023-04-29T04:07:52;98559.41;;;13.10;100.00
16544;BME280;8384;47.996;7.786;2023-04-29T04:10:17;98530.16;;;12.90;100.00
16544;BME280;8384;47.996;7.786;2023-04-29T04:12:43;98534.78;;;12.95;100.00
16544;BME280;8384;47.996;7.786;2023-04-29T04:15:08;98540.22;;;13.05;100.00
16544;BME280;8384;47.996;7.786;2023-04-29T04:17:34;98565.13;;;13.14;100.00
16544;BME280;8384;47.996;7.786;2023-04-29T04:19:59;98567.34;;;13.12;100.00
16544;BME280;8384;47.996;7.786;2023-04-29T04:22:25;98560.44;;;13.19;100.00
16544;BME280;8384;47.996;7.786;2023-04-29T04:24:50;98553.03;;;13.20;100.00
16544;BME280;8384;47.996;7.786;2023-04-29T04:27:15;98571.94;;;13.22;100.00
16544;BME280;8384;47.996;7.786;2023-04-29T04:29:41;98561.03;;;13.11;100.00
16544;BME280;8384;47.996;7.786;2023-04-29T04:32:06;98581.28;;;13.20;100.00
16544;BME280;8384;47.996;7.786;2023-04-29T04:34:31;98589.53;;;13.20;100.00
16544;BME280;8384;47.996;7.786;2023-04-29T04:36:56;98566.38;;;12.82;100.00
16544;BME280;8384;47.996;7.786;2023-04-29T04:39:22;98583.06;;;12.90;100.00
16544;BME280;8384;47.996;7.786;2023-04-29T04:41:47;98590.72;;;12.99;100.00
16544;BME280;8384;47.996;7.786;2023-04-29T04:44:12;98566.13;;;12.83;100.00
16544;BME280;8384;47.996;7.786;2023-04-29T04:46:38;98600.06;;;12.98;100.00
16544;BME280;8384;47.996;7.786;2023-04-29T04:49:04;98605.00;;;12.96;100.00
16544;BME280;8384;47.996;7.786;2023-04-29T04:51:30;98608.28;;;13.03;100.00
16544;BME280;8384;47.996;7.786;2023-04-29T04:53:55;98596.53;;;12.92;100.00
16544;BME280;8384;47.996;7.786;2023-04-29T04:56:20;98609.94;;;12.99;100.00
16544;BME280;8384;47.996;7.786;2023-04-29T04:58:46;98609.41;;;12.92;100.00
16544;BME280;8384;47.996;7.786;2023-04-29T05:01:11;98617.09;;;12.95;100.00
16544;BME280;8384;47.996;7.786;2023-04-29T05:03:36;98608.31;;;12.87;100.00
16544;BME280;8384;47.996;7.786;2023-04-29T05:06:02;98597.63;;;12.96;100.00
16544;BME280;8384;47.996;7.786;2023-04-29T05:08:27;98635.28;;;13.35;100.00
16544;BME280;8384;47.996;7.786;2023-04-29T05:10:52;98641.00;;;13.55;100.00
16544;BME280;8384;47.996;7.786;2023-04-29T05:13:18;98646.28;;;13.30;100.00
16544;BME280;8384;47.996;7.786;2023-04-29T05:15:43;98641.25;;;12.87;100.00
16544;BME280;8384;47.996;7.786;2023-04-29T05:18:09;98650.06;;;12.79;100.00
16544;BME280;8384;47.996;7.786;2023-04-29T05:20:35;98647.31;;;12.79;100.00
16544;BME280;8384;47.996;7.786;2023-04-29T05:23:01;98655.53;;;12.79;100.00
16544;BME280;8384;47.996;7.786;2023-04-29T05:25:26;98655.53;;;12.84;100.00
16544;BME280;8384;47.996;7.786;2023-04-29T05:27:51;98625.94;;;12.60;100.00
16544;BME280;8384;47.996;7.786;2023-04-29T05:30:17;98642.66;;;12.74;100.00
16544;BME280;8384;47.996;7.786;2023-04-29T05:32:43;98659.38;;;12.78;100.00
16544;BME280;8384;47.996;7.786;2023-04-29T05:35:10;98665.69;;;12.73;100.00
16544;BME280;8384;47.996;7.786;2023-04-29T05:37:35;98655.06;;;12.56;100.00
16544;BME280;8384;47.996;7.786;2023-04-29T05:40:00;98645.47;;;12.43;100.00
16544;BME280;8384;47.996;7.786;2023-04-29T05:42:26;98643.00;;;12.42;100.00
16544;BME280;8384;47.996;7.786;2023-04-29T05:44:51;98660.25;;;12.53;100.00
16544;BME280;8384;47.996;7.786;2023-04-29T05:47:17;98661.03;;;12.64;100.00
16544;BME280;8384;47.996;7.786;2023-04-29T05:49:42;98692.84;;;12.70;100.00
16544;BME280;8384;47.996;7.786;2023-04-29T05:52:07;98694.50;;;12.71;98.99
16544;BME280;8384;47.996;7.786;2023-04-29T05:54:33;98693.94;;;12.74;98.54
16544;BME280;8384;47.996;7.786;2023-04-29T05:56:59;98702.69;;;12.86;97.12
16544;BME280;8384;47.996;7.786;2023-04-29T05:59:28;98712.31;;;12.84;95.22
16544;BME280;8384;47.996;7.786;2023-04-29T06:01:55;98693.41;;;12.62;93.79
16544;BME280;8384;47.996;7.786;2023-04-29T06:04:20;98707.91;;;12.72;93.88
16544;BME280;8384;47.996;7.786;2023-04-29T06:06:45;98728.50;;;12.75;93.24
16544;BME280;8384;47.996;7.786;2023-04-29T06:09:11;98723.28;;;12.79;91.72
16544;BME280;8384;47.996;7.786;2023-04-29T06:11:39;98726.84;;;12.79;90.91
16544;BME280;8384;47.996;7.786;2023-04-29T06:14:04;98722.44;;;12.88;90.90
16544;BME280;8384;47.996;7.786;2023-04-29T06:16:29;98732.84;;;13.02;89.20
16544;BME280;8384;47.996;7.786;2023-04-29T06:18:55;98690.09;;;12.80;86.77
16544;BME280;8384;47.996;7.786;2023-04-29T06:21:20;98730.34;;;13.11;87.41
16544;BME280;8384;47.996;7.786;2023-04-29T06:23:46;98736.88;;;13.30;86.35
16544;BME280;8384;47.996;7.786;2023-04-29T06:26:11;98741.50;;;13.50;83.77
16544;BME280;8384;47.996;7.786;2023-04-29T06:28:36;98733.31;;;13.35;83.76
16544;BME280;8384;47.996;7.786;2023-04-29T06:31:01;98744.25;;;13.56;84.23
16544;BME280;8384;47.996;7.786;2023-04-29T06:33:27;98716.00;;;13.50;82.49
16544;BME280;8384;47.996;7.786;2023-04-29T06:35:54;98748.31;;;13.63;82.94
16544;BME280;8384;47.996;7.786;2023-04-29T06:38:19;98740.53;;;13.81;82.49
16544;BME280;8384;47.996;7.786;2023-04-29T06:40:44;98726.84;;;13.76;81.92
16544;BME280;8384;47.996;7.786;2023-04-29T06:43:10;98751.69;;;14.00;81.65
16544;BME280;8384;47.996;7.786;2023-04-29T06:45:35;98749.91;;;14.20;80.90
16544;BME280;8384;47.996;7.786;2023-04-29T06:48:01;98753.19;;;14.27;79.78
16544;BME280;8384;47.996;7.786;2023-04-29T06:50:26;98748.38;;;14.03;80.17
16544;BME280;8384;47.996;7.786;2023-04-29T06:52:52;98722.69;;;13.84;80.95
16544;BME280;8384;47.996;7.786;2023-04-29T06:55:18;98750.16;;;14.29;80.67
16544;BME280;8384;47.996;7.786;2023-04-29T06:57:43;98747.06;;;14.40;80.69
16544;BME280;8384;47.996;7.786;2023-04-29T07:00:08;98730.94;;;14.23;78.03
16544;BME280;8384;47.996;7.786;2023-04-29T07:02:34;98723.63;;;14.08;79.39
16544;BME280;8384;47.996;7.786;2023-04-29T07:04:59;98754.56;;;14.30;78.63
16544;BME280;8384;47.996;7.786;2023-04-29T07:07:25;98737.28;;;14.19;78.13
16544;BME280;8384;47.996;7.786;2023-04-29T07:09:50;98759.19;;;14.34;79.24
16544;BME280;8384;47.996;7.786;2023-04-29T07:12:17;98761.28;;;14.48;79.70
16544;BME280;8384;47.996;7.786;2023-04-29T07:14:42;98760.81;;;14.75;77.88
16544;BME280;8384;47.996;7.786;2023-04-29T07:17:07;98764.56;;;14.84;76.10
16544;BME280;8384;47.996;7.786;2023-04-29T07:19:33;98752.13;;;14.92;76.06
16544;BME280;8384;47.996;7.786;2023-04-29T07:21:58;98772.00;;;15.13;75.42
16544;BME280;8384;47.996;7.786;2023-04-29T07:24:24;98763.03;;;14.73;74.86
16544;BME280;8384;47.996;7.786;2023-04-29T07:26:50;98765.28;;;14.61;75.50
16544;BME280;8384;47.996;7.786;2023-04-29T07:29:15;98783.84;;;14.84;75.58
16544;BME280;8384;47.996;7.786;2023-04-29T07:31:41;98769.47;;;14.93;74.45
16544;BME280;8384;47.996;7.786;2023-04-29T07:34:06;98779.81;;;15.06;74.18
16544;BME280;8384;47.996;7.786;2023-04-29T07:36:31;98786.16;;;15.31;72.06
16544;BME280;8384;47.996;7.786;2023-04-29T07:38:57;98781.47;;;15.32;71.49
16544;BME280;8384;47.996;7.786;2023-04-29T07:41:23;98779.94;;;15.44;70.92
16544;BME280;8384;47.996;7.786;2023-04-29T07:43:48;98769.19;;;15.67;70.62
16544;BME280;8384;47.996;7.786;2023-04-29T07:46:13;98790.28;;;15.58;70.31
16544;BME280;8384;47.996;7.786;2023-04-29T07:48:40;98786.78;;;15.71;69.48
16544;BME280;8384;47.996;7.786;2023-04-29T07:51:05;98797.53;;;15.97;68.09
16544;BME280;8384;47.996;7.786;2023-04-29T07:53:31;98793.13;;;15.72;68.24
16544;BME280;8384;47.996;7.786;2023-04-29T07:55:56;98797.91;;;15.85;68.26
16544;BME280;8384;47.996;7.786;2023-04-29T07:58:21;98787.22;;;15.84;69.11
16544;BME280;8384;47.996;7.786;2023-04-29T08:00:47;98807.16;;;16.00;66.48
16544;BME280;8384;47.996;7.786;2023-04-29T08:03:12;98807.66;;;15.53;68.04
16544;BME280;8384;47.996;7.786;2023-04-29T08:05:38;98805.75;;;15.54;66.42
16544;BME280;8384;47.996;7.786;2023-04-29T08:08:03;98792.25;;;15.77;66.13
16544;BME280;8384;47.996;7.786;2023-04-29T08:10:29;98785.91;;;16.00;66.25
16544;BME280;8384;47.996;7.786;2023-04-29T08:12:54;98790.22;;;16.45;64.79
16544;BME280;8384;47.996;7.786;2023-04-29T08:15:20;98802.75;;;16.56;64.15
16544;BME280;8384;47.996;7.786;2023-04-29T08:17:45;98813.88;;;16.32;66.02
16544;BME280;8384;47.996;7.786;2023-04-29T08:20:11;98779.81;;;16.03;66.56
16544;BME280;8384;47.996;7.786;2023-04-29T08:22:36;98801.03;;;15.79;65.78
16544;BME280;8384;47.996;7.786;2023-04-29T08:25:05;98809.38;;;15.98;67.13
16544;BME280;8384;47.996;7.786;2023-04-29T08:27:31;98807.38;;;16.03;66.95
16544;BME280;8384;47.996;7.786;2023-04-29T08:29:56;98799.31;;;15.88;67.66
16544;BME280;8384;47.996;7.786;2023-04-29T08:32:21;98812.91;;;15.55;67.68
16544;BME280;8384;47.996;7.786;2023-04-29T08:34:47;98811.16;;;15.88;67.68
16544;BME280;8384;47.996;7.786;2023-04-29T08:37:12;98792.72;;;15.84;67.10
16544;BME280;8384;47.996;7.786;2023-04-29T08:39:38;98805.78;;;15.97;66.93
16544;BME280;8384;47.996;7.786;2023-04-29T08:42:09;98783.47;;;15.99;66.11
16544;BME280;8384;47.996;7.786;2023-04-29T08:44:35;98790.25;;;16.07;66.55
16544;BME280;8384;47.996;7.786;2023-04-29T08:47:01;98794.09;;;16.63;64.48
16544;BME280;8384;47.996;7.786;2023-04-29T08:49:27;98789.34;;;16.83;63.94
16544;BME280;8384;47.996;7.786;2023-04-29T08:51:53;98784.81;;;16.40;65.23
16544;BME280;8384;47.996;7.786;2023-04-29T08:54:18;98783.81;;;16.11;66.06
16544;BME280;8384;47.996;7.786;2023-04-29T08:56:44;98798.50;;;15.82;65.95
16544;BME280;8384;47.996;7.786;2023-04-29T08:59:11;98789.41;;;16.25;66.73
16544;BME280;8384;47.996;7.786;2023-04-29T09:01:39;98786.53;;;16.55;63.55
16544;BME280;8384;47.996;7.786;2023-04-29T09:04:29;98796.31;;;16.99;61.51
16544;BME280;8384;47.996;7.786;2023-04-29T09:07:02;98799.66;;;16.96;59.89
16544;BME280;8384;47.996;7.786;2023-04-29T09:09:28;98799.78;;;17.05;59.74
16544;BME280;8384;47.996;7.786;2023-04-29T09:11:54;98810.03;;;16.85;59.42
16544;BME280;8384;47.996;7.786;2023-04-29T09:14:21;98805.44;;;16.81;59.57
16544;BME280;8384;47.996;7.786;2023-04-29T09:16:47;98807.88;;;16.82;60.69
16544;BME280;8384;47.996;7.786;2023-04-29T09:19:31;98807.25;;;17.04;60.28
16544;BME280;8384;47.996;7.786;2023-04-29T09:21:57;98813.31;;;16.87;58.96
16544;BME280;8384;47.996;7.786;2023-04-29T09:24:26;98807.81;;;16.49;59.51
16544;BME280;8384;47.996;7.786;2023-04-29T09:26:53;98800.81;;;16.57;60.12
16544;BME280;8384;47.996;7.786;2023-04-29T09:29:19;98810.97;;;16.23;60.18
16544;BME280;8384;47.996;7.786;2023-04-29T09:31:44;98802.53;;;16.14;63.27
16544;BME280;8384;47.996;7.786;2023-04-29T09:34:11;98809.09;;;16.57;60.75
16544;BME280;8384;47.996;7.786;2023-04-29T09:36:43;98804.50;;;16.85;61.18
16544;BME280;8384;47.996;7.786;2023-04-29T09:39:21;98804.75;;;16.70;61.92
16544;BME280;8384;47.996;7.786;2023-04-29T09:44:29;98793.38;;;17.37;60.13
16544;BME280;8384;47.996;7.786;2023-04-29T09:47:06;98808.66;;;17.77;57.24
16544;BME280;8384;47.996;7.786;2023-04-29T09:49:38;98808.63;;;17.35;60.21
16544;BME280;8384;47.996;7.786;2023-04-29T09:52:06;98808.66;;;17.49;58.22
16544;BME280;8384;47.996;7.786;2023-04-29T09:54:33;98811.75;;;17.47;58.05
16544;BME280;8384;47.996;7.786;2023-04-29T09:57:00;98806.97;;;17.20;57.87
16544;BME280;8384;47.996;7.786;2023-04-29T09:59:27;98791.88;;;17.45;57.68
16544;BME280;8384;47.996;7.786;2023-04-29T10:01:54;98810.53;;;17.06;58.79
16544;BME280;8384;47.996;7.786;2023-04-29T10:04:22;98808.13;;;17.33;58.71
16544;BME280;8384;47.996;7.786;2023-04-29T10:06:50;98777.34;;;17.67;58.34
16544;BME280;8384;47.996;7.786;2023-04-29T10:09:17;98805.47;;;17.97;56.33
16544;BME280;8384;47.996;7.786;2023-04-29T10:11:47;98799.66;;;18.13;55.08
16544;BME280;8384;47.996;7.786;2023-04-29T10:14:21;98802.72;;;18.11;54.76
16544;BME280;8384;47.996;7.786;2023-04-29T10:17:08;98811.94;;;18.21;53.80
16544;BME280;8384;47.996;7.786;2023-04-29T10:19:46;98803.16;;;18.05;53.90
16544;BME280;8384;47.996;7.786;2023-04-29T10:22:17;98771.50;;;17.83;55.27
16544;BME280;8384;47.996;7.786;2023-04-29T10:24:45;98809.25;;;18.29;54.05
16544;BME280;8384;47.996;7.786;2023-04-29T10:27:13;98798.84;;;18.72;53.86
16544;BME280;8384;47.996;7.786;2023-04-29T10:29:40;98802.00;;;18.79;53.69
16544;BME280;8384;47.996;7.786;2023-04-29T10:32:08;98799.28;;;19.11;53.14
16544;BME280;8384;47.996;7.786;2023-04-29T10:34:37;98778.72;;;18.57;53.62
16544;BME280;8384;47.996;7.786;2023-04-29T10:37:07;98799.47;;;18.69;53.55
16544;BME280;8384;47.996;7.786;2023-04-29T10:39:42;98799.81;;;19.44;53.71
16544;BME280;8384;47.996;7.786;2023-04-29T10:53:19;98790.75;;;20.37;46.77
16544;BME280;8384;47.996;7.786;2023-04-29T10:55:52;98789.72;;;18.94;50.24
16544;BME280;8384;47.996;7.786;2023-04-29T10:58:34;98789.59;;;18.54;49.95
16544;BME280;8384;47.996;7.786;2023-04-29T11:01:00;98783.81;;;18.64;50.02
16544;BME280;8384;47.996;7.786;2023-04-29T11:03:46;98779.97;;;18.74;49.37
16544;BME280;8384;47.996;7.786;2023-04-29T11:06:12;98771.94;;;19.18;48.83
16544;BME280;8384;47.996;7.786;2023-04-29T11:08:37;98787.03;;;19.84;47.28
16544;BME280;8384;47.996;7.786;2023-04-29T11:11:04;98781.91;;;20.26;46.47
16544;BME280;8384;47.996;7.786;2023-04-29T11:13:31;98780.94;;;20.57;45.93
16544;BME280;8384;47.996;7.786;2023-04-29T11:16:05;98743.22;;;20.65;46.17
16544;BME280;8384;47.996;7.786;2023-04-29T11:18:32;98775.81;;;21.12;45.50
16544;BME280;8384;47.996;7.786;2023-04-29T11:23:32;98766.75;;;21.80;43.13
16544;BME280;8384;47.996;7.786;2023-04-29T11:25:58;98773.94;;;21.81;41.88
16544;BME280;8384;47.996;7.786;2023-04-29T11:28:23;98766.81;;;21.63;43.34
16544;BME280;8384;47.996;7.786;2023-04-29T11:30:49;98770.16;;;21.00;42.95
16544;BME280;8384;47.996;7.786;2023-04-29T11:33:15;98761.03;;;20.64;44.22
16544;BME280;8384;47.996;7.786;2023-04-29T11:35:40;98765.84;;;21.11;45.43
16544;BME280;8384;47.996;7.786;2023-04-29T11:38:06;98783.00;;;21.61;43.36
16544;BME280;8384;47.996;7.786;2023-04-29T11:40:32;98759.84;;;21.00;43.99
16544;BME280;8384;47.996;7.786;2023-04-29T11:42:57;98779.94;;;21.62;44.29
16544;BME280;8384;47.996;7.786;2023-04-29T11:45:22;98767.19;;;20.96;42.59
16544;BME280;8384;47.996;7.786;2023-04-29T11:47:48;98767.78;;;21.67;43.25
16544;BME280;8384;47.996;7.786;2023-04-29T11:50:15;98771.78;;;21.48;41.97
16544;BME280;8384;47.996;7.786;2023-04-29T11:52:45;98783.56;;;21.45;43.49
16544;BME280;8384;47.996;7.786;2023-04-29T11:55:11;98777.97;;;21.93;41.49
16544;BME280;8384;47.996;7.786;2023-04-29T11:57:38;98780.22;;;22.51;39.89
16544;BME280;8384;47.996;7.786;2023-04-29T12:00:07;98764.53;;;22.80;39.25
16544;BME280;8384;47.996;7.786;2023-04-29T12:02:33;98777.66;;;23.13;37.99
16544;BME280;8384;47.996;7.786;2023-04-29T12:05:02;98771.28;;;22.57;38.62
16544;BME280;8384;47.996;7.786;2023-04-29T12:07:29;98754.06;;;21.14;41.61
16544;BME280;8384;47.996;7.786;2023-04-29T12:09:55;98760.19;;;20.28;45.26
16544;BME280;8384;47.996;7.786;2023-04-29T12:12:24;98759.66;;;19.42;46.37
16544;BME280;8384;47.996;7.786;2023-04-29T12:14:51;98741.59;;;20.11;45.50
16544;BME280;8384;47.996;7.786;2023-04-29T12:17:17;98765.59;;;19.98;46.48
16544;BME280;8384;47.996;7.786;2023-04-29T12:22:08;98742.41;;;19.45;47.36
16544;BME280;8384;47.996;7.786;2023-04-29T12:24:38;98767.78;;;19.87;45.92
16544;BME280;8384;47.996;7.786;2023-04-29T12:27:07;98763.81;;;20.11;45.43
16544;BME280;8384;47.996;7.786;2023-04-29T12:29:34;98759.88;;;20.38;45.04
16544;BME280;8384;47.996;7.786;2023-04-29T12:32:00;98764.13;;;20.27;45.26
16544;BME280;8384;47.996;7.786;2023-04-29T12:34:28;98766.09;;;20.35;45.80
16544;BME280;8384;47.996;7.786;2023-04-29T12:36:54;98755.38;;;19.85;44.70
16544;BME280;8384;47.996;7.786;2023-04-29T12:39:20;98738.25;;;19.83;46.06
16544;BME280;8384;47.996;7.786;2023-04-29T12:41:45;98764.75;;;19.89;45.49
16544;BME280;8384;47.996;7.786;2023-04-29T12:44:11;98756.41;;;19.48;46.60
16544;BME280;8384;47.996;7.786;2023-04-29T12:46:37;98771.16;;;20.16;45.90
16544;BME280;8384;47.996;7.786;2023-04-29T12:49:04;98761.34;;;19.60;48.96
16544;BME280;8384;47.996;7.786;2023-04-29T12:51:31;98775.00;;;19.88;47.16
16544;BME280;8384;47.996;7.786;2023-04-29T12:53:58;98768.34;;;19.98;46.61
16544;BME280;8384;47.996;7.786;2023-04-29T12:56:23;98773.41;;;19.96;48.14
16544;BME280;8384;47.996;7.786;2023-04-29T12:58:49;98766.22;;;19.55;48.02
16544;BME280;8384;47.996;7.786;2023-04-29T13:01:14;98777.97;;;20.01;47.04
16544;BME280;8384;47.996;7.786;2023-04-29T13:03:40;98771.13;;;20.07;47.23
16544;BME280;8384;47.996;7.786;2023-04-29T13:06:05;98773.66;;;19.77;46.61
16544;BME280;8384;47.996;7.786;2023-04-29T13:08:32;98760.03;;;20.16;47.58
16544;BME280;8384;47.996;7.786;2023-04-29T13:10:58;98754.09;;;19.33;49.60
16544;BME280;8384;47.996;7.786;2023-04-29T13:13:23;98782.31;;;19.35;49.21
16544;BME280;8384;47.996;7.786;2023-04-29T13:15:48;98771.41;;;19.47;48.60
16544;BME280;8384;47.996;7.786;2023-04-29T13:18:13;98770.09;;;19.85;48.64
16544;BME280;8384;47.996;7.786;2023-04-29T13:20:39;98771.78;;;19.95;47.52
16544;BME280;8384;47.996;7.786;2023-04-29T13:23:04;98779.84;;;19.33;49.18
16544;BME280;8384;47.996;7.786;2023-04-29T13:25:29;98769.50;;;18.94;49.67